Time;durP1;ratioP1;P1;durP2;ratioP2;P2;SDS_P1;SDS_P2;PMS_P1;PMS_P2;Temp;Humidity;BMP_temperature;BMP_pressure;BME280_temperature;BME280_humidity;BME280_pressure;Samples;Min_cycle;Max_cycle;Signal;HPM_P1;HPM_P2
2022/12/18 00:01:05;;;;;;;57.97;29.42;;;1.50;94.40;;;;;;5054733;28;20025;-82
2022/12/18 00:03:35;;;;;;;62.00;31.25;;;1.50;94.40;;;;;;5053370;28;20029;-82
2022/12/18 00:06:01;;;;;;;62.85;31.58;;;1.50;94.30;;;;;;5053388;28;20029;-82
2022/12/18 00:08:27;;;;;;;65.75;31.77;;;1.50;94.20;;;;;;5053594;28;20033;-82
2022/12/18 00:10:52;;;;;;;63.95;30.38;;;1.50;94.20;;;;;;5053849;28;20476;-82
2022/12/18 00:13:18;;;;;;;59.30;29.88;;;1.50;94.20;;;;;;5051914;28;20041;-82
2022/12/18 00:15:44;;;;;;;58.28;29.67;;;1.50;94.10;;;;;;5053414;28;20033;-82
2022/12/18 00:18:09;;;;;;;60.25;30.60;;;1.50;93.90;;;;;;5053441;28;20476;-81
2022/12/18 00:20:39;;;;;;;55.47;29.58;;;1.40;93.60;;;;;;5053277;28;20094;-82
2022/12/18 00:23:06;;;;;;;60.40;29.63;;;1.40;93.60;;;;;;5053327;28;20039;-82
2022/12/18 00:25:36;;;;;;;69.50;32.70;;;1.30;93.70;;;;;;5053481;28;20049;-82
2022/12/18 00:28:02;;;;;;;64.50;31.17;;;1.20;93.50;;;;;;5052803;28;20031;-82
2022/12/18 00:30:28;;;;;;;61.67;29.60;;;1.10;93.80;;;;;;5053399;28;20036;-81
2022/12/18 00:32:54;;;;;;;62.15;30.35;;;1.00;93.80;;;;;;5052327;28;20250;-81
2022/12/18 00:35:19;;;;;;;56.25;31.42;;;0.90;93.70;;;;;;5053050;28;20029;-82
2022/12/18 00:37:45;;;;;;;63.35;31.20;;;0.80;93.70;;;;;;5051679;28;20033;-81
2022/12/18 00:40:11;;;;;;;58.17;30.17;;;0.70;93.90;;;;;;5053222;28;20036;-83
2022/12/18 00:45:29;;;;;;;56.67;29.88;;;0.50;94.00;;;;;;5053511;28;20040;-82
2022/12/18 00:47:55;;;;;;;55.92;29.30;;;0.40;94.20;;;;;;5052854;28;20071;-83
2022/12/18 00:50:23;;;;;;;63.38;31.92;;;0.30;94.40;;;;;;5052932;28;20040;-82
2022/12/18 00:52:48;;;;;;;55.72;30.77;;;0.40;94.30;;;;;;5052747;28;20102;-81
2022/12/18 00:55:14;;;;;;;59.90;30.50;;;0.30;94.30;;;;;;5052883;28;20461;-82
2022/12/18 00:57:40;;;;;;;56.28;28.63;;;0.30;94.40;;;;;;5051654;28;20036;-82
2022/12/18 01:00:08;;;;;;;62.03;29.48;;;0.30;94.30;;;;;;5053282;28;20166;-82
2022/12/18 01:02:34;;;;;;;61.97;30.17;;;0.30;94.20;;;;;;5052863;28;20108;-82
2022/12/18 01:05:00;;;;;;;62.42;29.67;;;0.30;94.20;;;;;;5051567;28;20171;-82
2022/12/18 01:07:25;;;;;;;55.33;28.50;;;0.10;94.50;;;;;;5035307;28;20061;-82
2022/12/18 01:09:51;;;;;;;55.03;27.10;;;0.00;94.60;;;;;;5052598;28;20054;-82
2022/12/18 01:12:17;;;;;;;56.45;28.13;;;0.10;94.90;;;;;;5051894;28;20136;-82
2022/12/18 01:14:42;;;;;;;74.90;32.10;;;0.20;94.60;;;;;;5051409;28;20044;-82
2022/12/18 01:17:08;;;;;;;78.68;32.65;;;0.30;94.50;;;;;;5051650;28;20458;-82
2022/12/18 01:19:33;;;;;;;74.85;32.08;;;0.30;94.30;;;;;;5052166;28;20052;-81
2022/12/18 01:21:59;;;;;;;68.10;32.47;;;0.30;94.50;;;;;;5051282;28;20033;-82
2022/12/18 01:24:25;;;;;;;56.55;30.15;;;0.40;94.10;;;;;;5052206;28;20029;-82
2022/12/18 01:26:50;;;;;;;55.38;27.98;;;0.30;94.30;;;;;;5051516;28;20029;-82
2022/12/18 01:29:16;;;;;;;51.63;25.50;;;0.30;94.10;;;;;;5051267;28;20428;-82
2022/12/18 01:31:42;;;;;;;53.05;27.65;;;0.20;94.10;;;;;;5051238;28;20033;-82
2022/12/18 01:34:08;;;;;;;52.65;26.65;;;0.20;94.00;;;;;;5052201;28;20052;-82
2022/12/18 01:36:36;;;;;;;51.60;26.15;;;0.20;94.20;;;;;;5051099;28;20029;-81
2022/12/18 01:39:10;;;;;;;53.80;26.60;;;0.20;94.10;;;;;;5052895;28;20351;-82
2022/12/18 01:44:58;;;;;;;52.92;25.52;;;0.10;94.00;;;;;;5056629;28;20044;-82
2022/12/18 01:47:35;;;;;;;52.58;25.33;;;0.10;94.10;;;;;;5056345;28;20036;-82
2022/12/18 01:50:15;;;;;;;50.22;23.88;;;0.00;94.10;;;;;;5056003;28;20099;-82
2022/12/18 01:53:12;;;;;;;50.15;26.35;;;0.10;94.20;;;;;;5055925;28;20488;-82
2022/12/18 01:55:51;;;;;;;46.05;23.65;;;0.10;94.10;;;;;;5052581;28;20482;-82
2022/12/18 01:58:19;;;;;;;46.22;23.52;;;0.10;94.10;;;;;;5054153;28;20025;-82
2022/12/18 02:00:45;;;;;;;47.50;25.33;;;0.00;94.00;;;;;;5055955;28;20036;-82
2022/12/18 02:03:11;;;;;;;45.80;24.52;;;0.10;93.90;;;;;;5055558;28;20105;-82
2022/12/18 02:05:50;;;;;;;48.78;25.27;;;0.00;93.90;;;;;;5055440;28;20174;-82
2022/12/18 02:08:26;;;;;;;48.10;22.98;;;-0.10;94.00;;;;;;5055682;28;20033;-82
2022/12/18 02:11:27;;;;;;;49.13;23.95;;;-0.20;94.20;;;;;;5054593;28;20025;-82
2022/12/18 02:14:28;;;;;;;43.63;22.45;;;-0.20;94.30;;;;;;4993893;28;20049;-82
2022/12/18 02:17:31;;;;;;;51.78;24.10;;;-0.10;94.30;;;;;;5054950;28;20033;-82
2022/12/18 02:20:08;;;;;;;44.85;23.08;;;-0.30;94.10;;;;;;5053844;28;20056;-82
2022/12/18 02:22:45;;;;;;;44.58;22.63;;;-0.40;94.30;;;;;;5054070;28;20040;-81
2022/12/18 02:25:33;;;;;;;45.83;22.77;;;-0.50;94.40;;;;;;5055466;28;20112;-82
2022/12/18 02:28:01;;;;;;;47.58;24.38;;;-0.40;94.50;;;;;;5055100;28;20032;-80
2022/12/18 02:30:31;;;;;;;47.20;24.30;;;-0.50;94.40;;;;;;5036986;28;20033;-81
2022/12/18 02:32:59;;;;;;;47.55;22.15;;;-0.50;94.50;;;;;;5054911;28;20048;-81
2022/12/18 02:35:29;;;;;;;47.90;23.30;;;-0.40;94.60;;;;;;5054522;28;20094;-81
2022/12/18 02:37:56;;;;;;;40.38;21.25;;;-0.40;94.40;;;;;;5054552;28;20124;-82
2022/12/18 02:40:24;;;;;;;46.30;21.95;;;-0.40;94.50;;;;;;5054725;28;20048;-82
2022/12/18 02:42:49;;;;;;;38.83;20.73;;;-0.40;94.40;;;;;;5054644;28;20078;-83
2022/12/18 02:45:15;;;;;;;36.92;20.35;;;-0.30;94.40;;;;;;5037049;28;20037;-83
2022/12/18 02:47:45;;;;;;;38.90;20.77;;;-0.20;94.20;;;;;;5055584;28;20040;-82
2022/12/18 02:50:30;;;;;;;40.45;21.02;;;-0.20;93.90;;;;;;5054753;28;20131;-83
2022/12/18 02:53:43;;;;;;;41.13;20.50;;;-0.20;93.90;;;;;;5054777;28;20039;-82
2022/12/18 02:56:27;;;;;;;47.40;22.23;;;-0.20;93.90;;;;;;5054729;28;20028;-81
2022/12/18 02:59:00;;;;;;;46.25;22.48;;;-0.30;93.90;;;;;;5054546;28;20025;-82
2022/12/18 03:01:31;;;;;;;42.75;21.23;;;-0.30;93.90;;;;;;5053155;28;20484;-82
2022/12/18 03:04:13;;;;;;;45.13;22.92;;;-0.30;94.20;;;;;;5054877;28;20370;-82
2022/12/18 03:06:44;;;;;;;44.88;23.30;;;-0.30;93.80;;;;;;5054289;28;20104;-82
2022/12/18 03:09:15;;;;;;;44.05;21.23;;;-0.50;94.00;;;;;;5054328;28;20029;-81
2022/12/18 03:14:33;;;;;;;50.03;22.95;;;-0.60;94.40;;;;;;5054435;28;20083;-82
2022/12/18 03:17:02;;;;;;;43.17;21.98;;;-0.50;94.40;;;;;;5052552;28;20422;-81
2022/12/18 03:19:31;;;;;;;45.38;25.77;;;-0.40;94.30;;;;;;5054495;28;20069;-81
2022/12/18 03:22:00;;;;;;;74.43;53.13;;;-0.40;94.10;;;;;;5052472;28;20025;-82
2022/12/18 03:24:30;;;;;;;62.05;40.97;;;-0.40;93.90;;;;;;5054820;28;20091;-82
2022/12/18 03:27:01;;;;;;;56.63;34.35;;;-0.60;94.00;;;;;;5055840;28;20025;-82
2022/12/18 03:29:30;;;;;;;49.30;29.65;;;-0.70;94.20;;;;;;5054591;28;20021;-82
2022/12/18 03:32:04;;;;;;;44.10;24.50;;;-0.70;94.40;;;;;;5054075;28;20033;-82
2022/12/18 03:34:33;;;;;;;44.42;23.30;;;-0.60;94.30;;;;;;5054100;28;20025;-82
2022/12/18 03:36:59;;;;;;;45.92;23.15;;;-0.60;94.30;;;;;;5053653;28;20131;-81
2022/12/18 03:39:25;;;;;;;38.72;19.80;;;-0.60;94.20;;;;;;5053290;28;20052;-81
2022/12/18 03:41:55;;;;;;;38.25;18.48;;;-0.60;94.10;;;;;;5053557;28;20029;-81
2022/12/18 03:44:26;;;;;;;36.88;19.20;;;-0.50;94.00;;;;;;5052820;28;20028;-81
2022/12/18 03:47:09;;;;;;;42.53;19.67;;;-0.50;93.80;;;;;;5052268;28;20056;-81
2022/12/18 03:49:47;;;;;;;38.53;19.63;;;-0.50;93.60;;;;;;5054210;28;20025;-82
2022/12/18 03:52:22;;;;;;;40.35;18.52;;;-0.50;93.50;;;;;;5053493;28;20115;-82
2022/12/18 03:54:48;;;;;;;34.20;17.85;;;-0.50;93.60;;;;;;5053549;28;20123;-82
2022/12/18 03:57:18;;;;;;;34.03;17.17;;;-0.50;93.50;;;;;;5053645;28;20025;-82
2022/12/18 03:59:46;;;;;;;33.03;16.20;;;-0.60;93.40;;;;;;5052474;28;20025;-82
2022/12/18 04:02:12;;;;;;;30.48;16.42;;;-0.70;93.60;;;;;;5051946;28;20028;-82
2022/12/18 04:04:40;;;;;;;32.63;16.85;;;-0.70;93.70;;;;;;5052916;28;20342;-82
2022/12/18 04:07:06;;;;;;;31.60;15.27;;;-0.70;93.90;;;;;;5051885;28;20032;-81
2022/12/18 04:09:34;;;;;;;30.95;15.70;;;-0.70;93.80;;;;;;5051906;28;20060;-81
2022/12/18 04:11:59;;;;;;;32.90;16.23;;;-0.70;93.70;;;;;;5052082;28;20422;-82
2022/12/18 04:14:25;;;;;;;28.38;15.23;;;-0.70;93.80;;;;;;5052915;28;20126;-82
2022/12/18 04:16:51;;;;;;;34.63;17.58;;;-0.70;93.80;;;;;;5034754;28;20036;-81
2022/12/18 04:19:16;;;;;;;36.28;17.15;;;-0.80;93.80;;;;;;5052573;28;20056;-82
2022/12/18 04:21:42;;;;;;;34.45;16.50;;;-0.80;93.90;;;;;;5051787;28;20110;-82
2022/12/18 04:24:08;;;;;;;31.00;15.80;;;-0.70;94.00;;;;;;5051774;28;20037;-81
2022/12/18 04:26:34;;;;;;;31.08;15.80;;;-0.80;93.80;;;;;;5068608;28;20025;-81
2022/12/18 04:28:59;;;;;;;31.42;15.98;;;-0.80;94.00;;;;;;5053022;28;20032;-83
2022/12/18 04:31:25;;;;;;;29.17;14.80;;;-0.80;94.00;;;;;;5052748;28;20025;-82
2022/12/18 04:33:51;;;;;;;28.83;14.50;;;-0.70;94.00;;;;;;5051741;28;20037;-83
2022/12/18 04:36:17;;;;;;;29.98;14.60;;;-0.70;93.80;;;;;;5053141;28;20441;-82
2022/12/18 04:38:42;;;;;;;26.90;13.73;;;-0.70;93.70;;;;;;5052927;28;20442;-82
2022/12/18 04:41:08;;;;;;;31.98;15.02;;;-0.70;93.60;;;;;;5053109;28;20465;-82
2022/12/18 04:43:34;;;;;;;27.08;14.52;;;-0.80;93.70;;;;;;5053055;28;20461;-82
2022/12/18 04:46:04;;;;;;;28.98;14.30;;;-0.80;93.90;;;;;;5052966;28;20084;-82
2022/12/18 04:48:29;;;;;;;28.42;14.55;;;-0.80;94.00;;;;;;5053223;28;20025;-82
2022/12/18 04:50:55;;;;;;;27.77;14.25;;;-0.80;94.00;;;;;;5053235;28;20461;-83
2022/12/18 04:53:21;;;;;;;25.45;13.45;;;-0.80;94.00;;;;;;5052897;28;20037;-82
2022/12/18 04:55:46;;;;;;;23.35;13.25;;;-0.80;93.90;;;;;;5052984;28;20043;-82
2022/12/18 04:58:12;;;;;;;29.23;13.45;;;-0.70;93.90;;;;;;5051340;28;20029;-82
2022/12/18 05:00:37;;;;;;;24.52;12.48;;;-0.70;93.80;;;;;;5052850;28;20488;-82
2022/12/18 05:03:03;;;;;;;25.23;12.93;;;-0.70;93.80;;;;;;5052811;28;20394;-80
2022/12/18 05:05:29;;;;;;;28.13;14.25;;;-0.70;93.70;;;;;;5052741;28;20029;-83
2022/12/18 05:07:54;;;;;;;22.60;11.98;;;-0.70;93.60;;;;;;5052890;28;20036;-82
2022/12/18 05:10:20;;;;;;;26.80;12.45;;;-0.80;93.80;;;;;;5054084;28;20033;-83
2022/12/18 05:12:58;;;;;;;22.67;12.77;;;-0.80;93.80;;;;;;5036713;28;20037;-82
2022/12/18 05:15:30;;;;;;;23.48;12.32;;;-0.70;93.70;;;;;;5055707;28;20036;-82
2022/12/18 05:17:57;;;;;;;24.75;12.40;;;-0.70;93.70;;;;;;5056234;28;20052;-83
2022/12/18 05:20:23;;;;;;;26.13;13.40;;;-0.70;93.80;;;;;;5056412;28;20032;-83
2022/12/18 05:22:49;;;;;;;23.75;12.35;;;-0.70;93.80;;;;;;5055855;28;20476;-83
2022/12/18 05:25:15;;;;;;;25.02;12.65;;;-0.70;93.80;;;;;;5054613;28;20102;-83
2022/12/18 05:27:41;;;;;;;22.02;12.35;;;-0.70;93.90;;;;;;5054801;28;20393;-83
2022/12/18 05:30:08;;;;;;;23.02;11.93;;;-0.60;93.80;;;;;;5054480;28;20386;-82
2022/12/18 05:32:34;;;;;;;21.92;12.20;;;-0.60;93.70;;;;;;5055989;28;20032;-82
2022/12/18 05:35:00;;;;;;;24.55;12.90;;;-0.60;93.60;;;;;;5055570;28;20041;-82
2022/12/18 05:37:25;;;;;;;26.20;12.82;;;-0.60;93.40;;;;;;5054357;28;20029;-83
2022/12/18 05:39:51;;;;;;;23.00;12.85;;;-0.60;93.50;;;;;;5055602;28;20111;-83
2022/12/18 05:42:16;;;;;;;24.42;13.00;;;-0.60;93.50;;;;;;5055768;28;20071;-82
2022/12/18 05:44:43;;;;;;;24.33;12.43;;;-0.60;93.60;;;;;;5054445;28;20060;-82
2022/12/18 05:47:09;;;;;;;22.35;12.13;;;-0.60;93.50;;;;;;5054416;28;20029;-83
2022/12/18 05:49:34;;;;;;;24.48;12.75;;;-0.60;93.40;;;;;;5054348;28;20037;-82
2022/12/18 05:52:00;;;;;;;25.23;12.98;;;-0.60;93.30;;;;;;5055657;28;20029;-83
2022/12/18 05:54:29;;;;;;;28.95;15.32;;;-0.70;93.30;;;;;;5055810;28;20066;-82
2022/12/18 05:56:54;;;;;;;26.05;13.40;;;-0.70;93.40;;;;;;5055523;28;20131;-82
2022/12/18 05:59:20;;;;;;;25.13;12.20;;;-0.70;93.40;;;;;;5055791;28;20029;-82
2022/12/18 06:01:46;;;;;;;23.58;12.10;;;-0.70;93.40;;;;;;5055519;28;20033;-82
2022/12/18 06:04:12;;;;;;;21.95;12.20;;;-0.70;93.40;;;;;;5054215;28;20044;-82
2022/12/18 06:06:38;;;;;;;19.98;11.25;;;-0.70;93.30;;;;;;5055414;28;20079;-82
2022/12/18 06:09:09;;;;;;;22.10;11.60;;;-0.70;93.30;;;;;;5055618;28;20484;-81
2022/12/18 06:11:36;;;;;;;19.58;11.38;;;-0.70;93.40;;;;;;5055617;28;20124;-82
2022/12/18 06:14:03;;;;;;;25.30;12.30;;;-0.70;93.50;;;;;;5055175;28;20076;-82
2022/12/18 06:16:29;;;;;;;24.88;12.77;;;-0.70;93.40;;;;;;5055342;28;20029;-83
2022/12/18 06:19:03;;;;;;;19.67;11.30;;;-0.80;93.50;;;;;;5054575;28;20067;-81
2022/12/18 06:21:29;;;;;;;21.98;11.73;;;-0.80;93.70;;;;;;5054763;28;20063;-82
2022/12/18 06:23:56;;;;;;;20.23;11.35;;;-0.90;93.70;;;;;;5054624;28;20032;-82
2022/12/18 06:26:22;;;;;;;24.55;12.35;;;-0.90;93.70;;;;;;5053655;28;20124;-82
2022/12/18 06:28:48;;;;;;;22.65;11.20;;;-0.90;93.80;;;;;;5055175;28;20021;-82
2022/12/18 06:31:14;;;;;;;20.80;12.10;;;-0.90;93.80;;;;;;5054613;28;20040;-82
2022/12/18 06:33:39;;;;;;;22.08;11.70;;;-0.90;93.90;;;;;;5036848;28;20493;-82
2022/12/18 06:36:08;;;;;;;24.65;12.35;;;-0.90;93.80;;;;;;5053940;28;20029;-81
2022/12/18 06:38:36;;;;;;;23.80;12.05;;;-0.90;93.70;;;;;;5054893;28;20036;-81
2022/12/18 06:41:07;;;;;;;23.95;12.48;;;-0.80;93.80;;;;;;5054658;28;20082;-82
2022/12/18 06:43:33;;;;;;;25.52;12.35;;;-0.80;93.70;;;;;;5054879;28;20510;-82
2022/12/18 06:46:00;;;;;;;23.00;12.00;;;-0.90;93.60;;;;;;5054197;28;20021;-82
2022/12/18 06:48:26;;;;;;;23.40;12.35;;;-0.90;93.70;;;;;;5053695;28;20065;-81
2022/12/18 06:50:51;;;;;;;24.08;12.00;;;-0.90;93.80;;;;;;5055208;28;20061;-82
2022/12/18 06:53:17;;;;;;;22.05;12.30;;;-0.90;93.70;;;;;;5054250;28;20037;-81
2022/12/18 06:55:43;;;;;;;23.05;12.05;;;-0.90;93.80;;;;;;5053871;28;20064;-81
2022/12/18 06:58:09;;;;;;;22.00;11.45;;;-0.90;93.90;;;;;;5055251;28;20036;-82
2022/12/18 07:00:34;;;;;;;20.90;11.68;;;-0.90;93.90;;;;;;5053366;28;20039;-72
2022/12/18 07:03:00;;;;;;;25.25;12.80;;;-1.00;93.90;;;;;;5053654;28;20074;-72
2022/12/18 07:05:26;;;;;;;22.05;12.18;;;-1.00;94.00;;;;;;5054607;28;20029;-72
2022/12/18 07:07:52;;;;;;;20.85;11.50;;;-1.00;94.10;;;;;;5054101;28;20102;-71
2022/12/18 07:10:17;;;;;;;23.30;13.07;;;-1.00;94.20;;;;;;5053617;28;20033;-72
2022/12/18 07:12:43;;;;;;;24.90;12.50;;;-1.00;94.10;;;;;;5054986;28;20029;-72
2022/12/18 07:15:09;;;;;;;24.13;13.18;;;-1.00;94.10;;;;;;5054351;28;20025;-70
2022/12/18 07:17:35;;;;;;;19.80;11.38;;;-1.00;94.20;;;;;;5053229;28;20481;-71
2022/12/18 07:20:01;;;;;;;20.55;11.55;;;-1.00;94.20;;;;;;5055103;28;20527;-71
2022/12/18 07:22:26;;;;;;;23.25;11.77;;;-1.00;94.20;;;;;;5054203;28;20053;-73
2022/12/18 07:24:52;;;;;;;23.05;12.00;;;-1.10;94.20;;;;;;5055039;28;20087;-69
2022/12/18 07:27:17;;;;;;;20.58;11.27;;;-1.00;95.00;;;;;;5054694;28;20457;-70
2022/12/18 07:29:43;;;;;;;18.73;10.60;;;-0.90;95.10;;;;;;5053493;28;20060;-71
2022/12/18 07:32:09;;;;;;;19.83;10.68;;;-0.80;95.50;;;;;;5054617;28;20122;-69
2022/12/18 07:34:34;;;;;;;21.00;11.18;;;-0.70;95.50;;;;;;5054252;28;20363;-69
2022/12/18 07:37:00;;;;;;;19.38;10.30;;;-0.60;95.20;;;;;;5053344;28;20056;-69
2022/12/18 07:39:26;;;;;;;20.60;10.68;;;-0.60;95.00;;;;;;5054484;28;20040;-70
2022/12/18 07:44:36;;;;;;;20.55;11.10;;;-0.50;94.60;;;;;;5054485;28;20451;-69
2022/12/18 07:47:02;;;;;;;17.45;9.98;;;-0.30;94.20;;;;;;5054288;28;20029;-69
2022/12/18 07:49:28;;;;;;;19.65;11.05;;;-0.30;94.20;;;;;;5053012;28;20029;-69
2022/12/18 07:51:55;;;;;;;19.20;11.00;;;-0.30;94.10;;;;;;5036215;28;20025;-69
2022/12/18 07:54:22;;;;;;;17.80;9.55;;;-0.40;93.70;;;;;;5053908;28;20045;-69
2022/12/18 07:56:48;;;;;;;21.65;10.48;;;-0.50;94.20;;;;;;5054310;28;20036;-70
2022/12/18 07:59:14;;;;;;;20.65;11.23;;;-0.40;94.20;;;;;;5052572;28;20029;-69
2022/12/18 08:01:39;;;;;;;17.80;9.93;;;-0.40;94.00;;;;;;5052525;28;20065;-71
2022/12/18 08:04:05;;;;;;;20.10;10.52;;;-0.50;93.90;;;;;;5052649;28;20484;-69
2022/12/18 08:06:31;;;;;;;17.58;9.73;;;-0.50;94.00;;;;;;5053768;28;20025;-69
2022/12/18 08:08:57;;;;;;;20.88;10.63;;;-0.40;94.30;;;;;;5052791;28;20037;-69
2022/12/18 08:11:24;;;;;;;18.08;9.90;;;-0.50;93.70;;;;;;5053684;28;20100;-69
2022/12/18 08:13:50;;;;;;;21.08;10.57;;;-0.50;94.10;;;;;;5052361;28;20029;-69
2022/12/18 08:16:17;;;;;;;17.30;9.65;;;-0.50;94.00;;;;;;5053871;28;20025;-70
2022/12/18 08:18:42;;;;;;;18.63;10.13;;;-0.50;94.10;;;;;;5053846;28;20131;-70
2022/12/18 08:21:14;;;;;;;17.10;9.70;;;-0.40;94.20;;;;;;5052907;28;20414;-69
2022/12/18 08:23:41;;;;;;;17.35;9.85;;;-0.20;93.90;;;;;;5054093;28;20029;-72
2022/12/18 08:26:07;;;;;;;18.30;9.93;;;-0.20;93.60;;;;;;5052078;28;20029;-72
2022/12/18 08:28:33;;;;;;;17.83;10.07;;;-0.20;93.50;;;;;;5053437;28;20032;-69
2022/12/18 08:30:59;;;;;;;17.98;9.48;;;-0.30;93.70;;;;;;5052496;28;20477;-70
2022/12/18 08:33:24;;;;;;;17.58;9.73;;;-0.40;93.60;;;;;;5053017;28;20051;-69
2022/12/18 08:35:50;;;;;;;19.23;10.55;;;-0.30;93.70;;;;;;5053482;28;20029;-69
2022/12/18 08:38:15;;;;;;;17.20;10.20;;;-0.40;93.90;;;;;;5053674;28;20416;-69
2022/12/18 08:40:41;;;;;;;18.33;9.25;;;-0.40;94.00;;;;;;5053144;28;20484;-69
2022/12/18 08:45:53;;;;;;;16.63;9.15;;;-0.50;94.20;;;;;;5053580;28;20075;-70
2022/12/18 08:48:19;;;;;;;18.52;9.50;;;-0.50;94.20;;;;;;5054751;28;20117;-69
2022/12/18 08:50:54;;;;;;;19.02;10.02;;;-0.50;94.30;;;;;;5057020;28;20529;-69
2022/12/18 08:53:19;;;;;;;19.88;10.82;;;-0.50;94.40;;;;;;5056198;28;20037;-71
2022/12/18 08:55:45;;;;;;;17.55;9.30;;;-0.50;94.40;;;;;;5057109;28;20040;-69
2022/12/18 08:58:11;;;;;;;17.98;9.07;;;-0.50;94.50;;;;;;5057270;28;20086;-69
2022/12/18 09:00:36;;;;;;;17.75;9.55;;;-0.40;94.40;;;;;;5057201;28;20029;-69
2022/12/18 09:03:02;;;;;;;19.20;9.65;;;-0.30;94.30;;;;;;5055987;28;20452;-69
2022/12/18 09:05:28;;;;;;;15.98;9.05;;;-0.10;94.10;;;;;;5055653;28;20036;-68
2022/12/18 09:07:53;;;;;;;16.60;9.40;;;-0.20;94.10;;;;;;5057080;28;20116;-68
2022/12/18 09:10:19;;;;;;;13.77;8.35;;;-0.10;94.10;;;;;;5056256;28;20453;-70
2022/12/18 09:12:44;;;;;;;16.85;8.85;;;0.00;94.10;;;;;;5039098;28;20037;-68
2022/12/18 09:15:10;;;;;;;13.77;8.10;;;0.10;93.90;;;;;;5039325;28;20041;-68
2022/12/18 09:17:36;;;;;;;14.07;7.97;;;0.20;93.90;;;;;;5057604;28;20036;-69
2022/12/18 09:20:01;;;;;;;15.50;8.68;;;0.20;93.70;;;;;;5055096;28;20394;-70
2022/12/18 09:22:27;;;;;;;14.10;8.40;;;0.20;93.70;;;;;;5055670;28;20033;-70
2022/12/18 09:24:53;;;;;;;14.48;8.75;;;0.40;93.80;;;;;;5055576;28;20056;-73
2022/12/18 09:27:19;;;;;;;17.25;8.50;;;0.50;93.50;;;;;;5039138;28;20039;-69
2022/12/18 09:29:45;;;;;;;13.82;7.70;;;0.50;93.40;;;;;;5056721;28;20388;-70
2022/12/18 09:32:10;;;;;;;14.90;7.63;;;0.50;93.50;;;;;;5055408;28;20115;-69
2022/12/18 09:34:36;;;;;;;13.93;7.68;;;0.50;93.40;;;;;;5056732;28;20041;-70
2022/12/18 09:37:02;;;;;;;15.18;7.78;;;0.70;93.40;;;;;;5056244;28;20104;-69
2022/12/18 09:39:27;;;;;;;14.45;8.57;;;0.80;93.20;;;;;;5038344;28;20037;-69
2022/12/18 09:41:58;;;;;;;13.40;8.10;;;0.90;92.80;;;;;;5056209;28;20086;-69
2022/12/18 09:44:30;;;;;;;12.30;7.50;;;0.90;92.90;;;;;;5056172;28;20021;-69
2022/12/18 09:47:05;;;;;;;15.07;7.93;;;1.00;92.80;;;;;;5055107;28;20033;-70
2022/12/18 09:49:35;;;;;;;14.60;8.40;;;1.20;92.70;;;;;;5056052;28;20296;-69
2022/12/18 09:52:08;;;;;;;16.65;8.63;;;1.20;92.60;;;;;;5055047;28;20028;-70
2022/12/18 09:54:43;;;;;;;;;;;1.20;92.30;;;;;;5056648;28;20110;-70
2022/12/18 09:57:29;;;;;;;14.48;7.47;;;1.10;92.60;;;;;;5056630;28;19905;-70
2022/12/18 09:59:59;;;;;;;13.88;7.85;;;1.10;92.30;;;;;;5055069;28;20100;-70
2022/12/18 10:02:26;;;;;;;13.60;7.65;;;1.20;92.30;;;;;;5056018;28;20033;-72
2022/12/18 10:05:15;;;;;;;14.45;8.60;;;1.30;92.10;;;;;;5054489;28;20029;-72
2022/12/18 10:07:52;;;;;;;16.48;8.38;;;1.30;91.70;;;;;;5041740;28;20113;-72
2022/12/18 10:10:43;;;;;;;14.40;8.40;;;1.40;92.00;;;;;;5055854;28;20021;-71
2022/12/18 10:13:20;;;;;;;13.05;7.40;;;1.50;91.90;;;;;;5054396;28;20033;-72
2022/12/18 10:18:54;;;;;;;14.32;7.18;;;1.50;91.50;;;;;;5042778;28;20049;-78
2022/12/18 10:21:43;;;;;;;14.82;7.82;;;1.50;91.20;;;;;;5024702;28;20033;-78
2022/12/18 10:24:34;;;;;;;15.63;7.90;;;1.40;91.50;;;;;;5037059;28;20035;-79
2022/12/18 10:27:22;;;;;;;11.18;7.00;;;1.50;91.40;;;;;;5035412;28;20020;-78
2022/12/18 10:29:48;;;;;;;14.00;8.05;;;1.60;91.60;;;;;;5035022;28;20418;-78
2022/12/18 10:32:23;;;;;;;13.35;7.82;;;1.70;91.40;;;;;;5017927;28;20021;-77
2022/12/18 10:34:50;;;;;;;14.50;8.68;;;1.60;91.20;;;;;;5035448;28;20051;-77
2022/12/18 10:37:19;;;;;;;15.05;7.68;;;1.60;91.40;;;;;;5035185;28;20033;-78
2022/12/18 10:40:04;;;;;;;15.43;8.70;;;1.70;91.40;;;;;;5016970;28;20028;-78
2022/12/18 10:42:30;;;;;;;13.98;7.72;;;1.70;91.00;;;;;;5034806;28;20050;-78
2022/12/18 10:45:10;;;;;;;13.70;7.97;;;1.60;91.30;;;;;;5000494;28;20030;-78
2022/12/18 10:47:41;;;;;;;15.75;8.35;;;1.60;91.50;;;;;;5034715;28;20045;-78
2022/12/18 10:50:39;;;;;;;15.95;8.20;;;1.70;91.40;;;;;;5018647;28;20079;-78
2022/12/18 10:53:05;;;;;;;15.18;8.82;;;1.80;91.30;;;;;;5015914;28;20038;-78
2022/12/18 10:55:39;;;;;;;18.13;9.48;;;1.90;90.90;;;;;;5035027;28;20036;-78
2022/12/18 10:58:27;;;;;;;13.27;8.32;;;2.00;90.90;;;;;;5034608;28;20024;-78
2022/12/18 11:01:21;;;;;;;15.50;9.00;;;2.00;90.90;;;;;;5034694;28;20018;-78
2022/12/18 11:03:49;;;;;;;14.82;8.25;;;2.00;91.30;;;;;;5034797;28;20026;-78
2022/12/18 11:06:24;;;;;;;18.13;9.55;;;2.10;91.30;;;;;;5016587;28;20017;-78
2022/12/18 11:09:02;;;;;;;15.45;8.98;;;2.10;91.50;;;;;;5035024;28;20031;-78
2022/12/18 11:11:28;;;;;;;15.48;8.50;;;2.10;91.40;;;;;;5034380;28;20170;-78
2022/12/18 11:13:59;;;;;;;16.42;9.23;;;2.20;91.50;;;;;;5016411;28;20373;-78
2022/12/18 11:16:26;;;;;;;18.58;8.80;;;2.20;91.00;;;;;;5034141;28;20081;-78
2022/12/18 11:18:52;;;;;;;17.30;9.73;;;2.20;90.80;;;;;;5034499;28;20033;-78
2022/12/18 11:21:18;;;;;;;17.77;10.43;;;2.20;90.60;;;;;;5017006;28;20496;-78
2022/12/18 11:23:50;;;;;;;18.40;10.73;;;2.20;90.80;;;;;;5017033;28;20033;-78
2022/12/18 11:26:15;;;;;;;18.70;10.43;;;2.20;90.80;;;;;;5034205;28;20029;-78
2022/12/18 11:28:47;;;;;;;18.67;10.35;;;2.20;91.10;;;;;;5034052;28;20112;-78
2022/12/18 11:31:12;;;;;;;17.92;10.85;;;2.30;91.20;;;;;;5034372;28;20026;-78
2022/12/18 11:33:42;;;;;;;18.90;10.93;;;2.40;90.80;;;;;;5016608;28;20025;-78
2022/12/18 11:36:10;;;;;;;16.92;9.57;;;2.40;90.40;;;;;;5034324;28;20041;-77
2022/12/18 11:38:38;;;;;;;16.45;9.75;;;2.30;90.40;;;;;;4999796;28;20579;-78
2022/12/18 11:41:15;;;;;;;16.55;9.77;;;2.30;90.20;;;;;;5033730;28;20097;-77
2022/12/18 11:43:50;;;;;;;17.50;9.63;;;2.30;90.40;;;;;;5016320;28;20026;-75
2022/12/18 11:46:39;;;;;;;14.77;9.00;;;2.40;89.70;;;;;;5016227;28;20061;-77
2022/12/18 11:49:33;;;;;;;16.63;9.50;;;2.40;89.80;;;;;;5034389;28;20021;-79
2022/12/18 11:52:09;;;;;;;18.38;9.65;;;2.40;89.30;;;;;;5024551;28;20091;-78
2022/12/18 11:54:35;;;;;;;15.90;9.60;;;2.40;89.10;;;;;;5035547;28;20117;-78
2022/12/18 11:57:26;;;;;;;19.15;10.55;;;2.50;88.80;;;;;;5017450;28;20037;-78
2022/12/18 12:00:04;;;;;;;15.52;9.25;;;2.50;88.50;;;;;;5016331;28;20037;-77
2022/12/18 12:02:35;;;;;;;19.40;10.98;;;2.50;89.10;;;;;;5035498;28;20028;-78
2022/12/18 12:05:18;;;;;;;19.67;9.70;;;2.60;89.30;;;;;;5034408;28;20072;-77
2022/12/18 12:08:29;;;;;;;19.17;10.38;;;2.60;89.00;;;;;;5033465;28;20025;-77
2022/12/18 12:11:15;;;;;;;15.93;9.20;;;2.70;88.50;;;;;;5032277;28;20030;-78
2022/12/18 12:13:44;;;;;;;18.23;9.80;;;2.70;88.00;;;;;;5015746;28;20040;-77
2022/12/18 12:16:46;;;;;;;15.82;9.38;;;2.70;87.50;;;;;;5015301;28;20120;-76
2022/12/18 12:19:42;;;;;;;18.48;10.20;;;2.70;87.30;;;;;;5002819;28;20045;-76
2022/12/18 12:22:24;;;;;;;17.52;9.35;;;2.70;87.30;;;;;;5033535;28;20021;-76
2022/12/18 12:25:12;;;;;;;19.05;9.93;;;2.60;87.80;;;;;;5033726;28;20029;-77
2022/12/18 12:28:26;;;;;;;19.27;9.27;;;2.50;87.40;;;;;;5033228;28;20104;-75
2022/12/18 12:31:03;;;;;;;;;;;2.40;87.90;;;;;;4998808;28;20026;-76
2022/12/18 12:33:48;;;;;;;17.25;8.90;;;2.50;88.00;;;;;;5034627;28;19913;-75
2022/12/18 12:36:36;;;;;;;15.55;8.70;;;2.60;87.60;;;;;;5033853;28;20049;-76
2022/12/18 12:39:07;;;;;;;26.95;9.48;;;2.60;87.40;;;;;;5016315;28;20437;-76
2022/12/18 12:44:28;;;;;;;17.58;9.90;;;2.70;87.40;;;;;;5033176;28;20036;-75
2022/12/18 12:46:59;;;;;;;19.00;9.55;;;2.70;86.60;;;;;;5033266;28;20037;-74
2022/12/18 12:49:28;;;;;;;18.23;10.43;;;2.70;87.00;;;;;;5033351;28;20444;-73
2022/12/18 12:52:04;;;;;;;18.73;10.63;;;2.60;86.70;;;;;;5033041;28;20029;-74
2022/12/18 12:54:32;;;;;;;21.02;11.25;;;2.50;87.20;;;;;;5015608;28;20030;-74
2022/12/18 12:57:12;;;;;;;14.82;8.98;;;2.50;87.60;;;;;;5033202;28;20053;-74
2022/12/18 12:59:59;;;;;;;18.83;10.25;;;2.40;87.70;;;;;;5000458;28;20028;-76
2022/12/18 13:02:45;;;;;;;18.08;9.95;;;2.40;88.20;;;;;;5015012;28;20021;-74
2022/12/18 13:05:22;;;;;;;18.35;10.23;;;2.50;87.80;;;;;;5033142;28;20091;-74
2022/12/18 13:07:57;;;;;;;17.55;10.43;;;2.60;87.70;;;;;;5033021;28;20124;-74
2022/12/18 13:10:31;;;;;;;16.90;10.00;;;2.70;87.50;;;;;;5032539;28;20031;-73
2022/12/18 13:13:01;;;;;;;;;;;2.80;87.30;;;;;;5033056;28;20021;-74